Terminal Aerodrome Forecast
Issued by NWS Blacksburg, VA

Home | Current Version | Previous Version | Text Only | Print | Product List | Glossary On
Versions: 1 2 3 4 5 6 7 8 9 10 11 12 13 14
000
FTUS41 KRNK 211149
TAFLYH
TAF
KLYH 211149Z 2112/2212 00000KT 5SM BR SCT100
     FM211300 19007KT P6SM SCT050
     FM220000 19003KT P6SM SCT250
     FM220800 00000KT 4SM BR SKC=

USA.gov is the U.S. government's official web portal to all federal, state and local government web resources and services.